sensor_id;sensor_type;location;lat;lon;timestamp;P1;durP1;ratioP1;P2;durP2;ratioP2
32812;SDS011;19162;48.254;11.454;2024-03-06T00:02:28;19.05;;;17.35;;
32812;SDS011;19162;48.254;11.454;2024-03-06T00:05:28;19.05;;;17.60;;
32812;SDS011;19162;48.254;11.454;2024-03-06T00:08:28;19.00;;;17.58;;
32812;SDS011;19162;48.254;11.454;2024-03-06T00:11:28;19.13;;;17.65;;
32812;SDS011;19162;48.254;11.454;2024-03-06T00:14:29;18.67;;;17.20;;
32812;SDS011;19162;48.254;11.454;2024-03-06T00:17:29;20.20;;;18.60;;
32812;SDS011;19162;48.254;11.454;2024-03-06T00:20:29;19.15;;;17.70;;
32812;SDS011;19162;48.254;11.454;2024-03-06T00:23:29;18.90;;;17.45;;
32812;SDS011;19162;48.254;11.454;2024-03-06T00:26:30;18.63;;;17.20;;
32812;SDS011;19162;48.254;11.454;2024-03-06T00:29:31;19.92;;;18.30;;
32812;SDS011;19162;48.254;11.454;2024-03-06T00:32:31;20.13;;;18.55;;
32812;SDS011;19162;48.254;11.454;2024-03-06T00:35:31;20.40;;;18.80;;
32812;SDS011;19162;48.254;11.454;2024-03-06T00:38:31;20.90;;;19.20;;
32812;SDS011;19162;48.254;11.454;2024-03-06T00:41:32;20.90;;;19.30;;
32812;SDS011;19162;48.254;11.454;2024-03-06T00:44:32;21.77;;;20.17;;
32812;SDS011;19162;48.254;11.454;2024-03-06T00:47:32;20.50;;;19.00;;
32812;SDS011;19162;48.254;11.454;2024-03-06T00:50:34;22.10;;;20.00;;
32812;SDS011;19162;48.254;11.454;2024-03-06T00:53:35;22.45;;;20.52;;
32812;SDS011;19162;48.254;11.454;2024-03-06T00:56:38;20.47;;;18.77;;
32812;SDS011;19162;48.254;11.454;2024-03-06T00:59:39;21.10;;;19.35;;
32812;SDS011;19162;48.254;11.454;2024-03-06T01:02:39;19.95;;;18.15;;
32812;SDS011;19162;48.254;11.454;2024-03-06T01:05:40;21.33;;;19.63;;
32812;SDS011;19162;48.254;11.454;2024-03-06T01:08:40;21.38;;;19.73;;
32812;SDS011;19162;48.254;11.454;2024-03-06T01:11:41;20.55;;;19.00;;
32812;SDS011;19162;48.254;11.454;2024-03-06T01:14:41;21.85;;;19.95;;
32812;SDS011;19162;48.254;11.454;2024-03-06T01:17:42;21.83;;;20.13;;
32812;SDS011;19162;48.254;11.454;2024-03-06T01:20:42;22.20;;;20.50;;
32812;SDS011;19162;48.254;11.454;2024-03-06T01:23:43;23.10;;;21.30;;
32812;SDS011;19162;48.254;11.454;2024-03-06T01:26:43;22.85;;;20.75;;
32812;SDS011;19162;48.254;11.454;2024-03-06T01:29:43;22.90;;;21.15;;
32812;SDS011;19162;48.254;11.454;2024-03-06T01:32:43;22.92;;;20.90;;
32812;SDS011;19162;48.254;11.454;2024-03-06T01:35:43;23.40;;;21.50;;
32812;SDS011;19162;48.254;11.454;2024-03-06T01:38:44;23.65;;;21.85;;
32812;SDS011;19162;48.254;11.454;2024-03-06T01:41:46;23.25;;;21.35;;
32812;SDS011;19162;48.254;11.454;2024-03-06T01:44:46;23.77;;;21.83;;
32812;SDS011;19162;48.254;11.454;2024-03-06T01:47:47;23.75;;;21.85;;
32812;SDS011;19162;48.254;11.454;2024-03-06T01:50:47;24.38;;;22.48;;
32812;SDS011;19162;48.254;11.454;2024-03-06T01:53:47;24.45;;;22.35;;
32812;SDS011;19162;48.254;11.454;2024-03-06T01:56:48;23.63;;;21.77;;
32812;SDS011;19162;48.254;11.454;2024-03-06T01:59:49;23.65;;;21.77;;
32812;SDS011;19162;48.254;11.454;2024-03-06T02:02:49;24.20;;;22.23;;
32812;SDS011;19162;48.254;11.454;2024-03-06T02:05:50;23.23;;;21.38;;
32812;SDS011;19162;48.254;11.454;2024-03-06T02:08:50;22.40;;;20.50;;
32812;SDS011;19162;48.254;11.454;2024-03-06T02:11:51;25.25;;;23.10;;
32812;SDS011;19162;48.254;11.454;2024-03-06T02:14:51;23.93;;;22.07;;
32812;SDS011;19162;48.254;11.454;2024-03-06T02:17:52;24.00;;;22.15;;
32812;SDS011;19162;48.254;11.454;2024-03-06T02:20:53;24.15;;;21.98;;
32812;SDS011;19162;48.254;11.454;2024-03-06T02:23:53;24.20;;;22.10;;
32812;SDS011;19162;48.254;11.454;2024-03-06T02:26:54;24.02;;;22.02;;
32812;SDS011;19162;48.254;11.454;2024-03-06T02:29:56;22.92;;;21.13;;
32812;SDS011;19162;48.254;11.454;2024-03-06T02:32:56;23.70;;;21.50;;
32812;SDS011;19162;48.254;11.454;2024-03-06T02:35:56;22.88;;;20.88;;
32812;SDS011;19162;48.254;11.454;2024-03-06T02:38:56;24.30;;;21.98;;
32812;SDS011;19162;48.254;11.454;2024-03-06T02:41:56;24.83;;;22.83;;
32812;SDS011;19162;48.254;11.454;2024-03-06T02:44:57;24.92;;;22.63;;
32812;SDS011;19162;48.254;11.454;2024-03-06T02:47:57;25.63;;;23.42;;
32812;SDS011;19162;48.254;11.454;2024-03-06T02:50:57;24.00;;;21.87;;
32812;SDS011;19162;48.254;11.454;2024-03-06T02:53:57;26.08;;;23.77;;
32812;SDS011;19162;48.254;11.454;2024-03-06T02:56:58;26.73;;;24.42;;
32812;SDS011;19162;48.254;11.454;2024-03-06T02:59:58;27.38;;;24.80;;
32812;SDS011;19162;48.254;11.454;2024-03-06T03:02:58;26.45;;;24.25;;
32812;SDS011;19162;48.254;11.454;2024-03-06T03:05:59;25.53;;;23.40;;
32812;SDS011;19162;48.254;11.454;2024-03-06T03:08:59;28.75;;;26.25;;
32812;SDS011;19162;48.254;11.454;2024-03-06T03:11:59;26.33;;;23.92;;
32812;SDS011;19162;48.254;11.454;2024-03-06T03:14:59;26.73;;;24.42;;
32812;SDS011;19162;48.254;11.454;2024-03-06T03:18:00;27.17;;;24.70;;
32812;SDS011;19162;48.254;11.454;2024-03-06T03:21:00;26.30;;;23.80;;
32812;SDS011;19162;48.254;11.454;2024-03-06T03:24:01;28.65;;;26.02;;
32812;SDS011;19162;48.254;11.454;2024-03-06T03:27:01;28.17;;;25.57;;
32812;SDS011;19162;48.254;11.454;2024-03-06T03:30:02;26.33;;;24.08;;
32812;SDS011;19162;48.254;11.454;2024-03-06T03:33:03;27.25;;;24.77;;
32812;SDS011;19162;48.254;11.454;2024-03-06T03:36:03;26.67;;;24.20;;
32812;SDS011;19162;48.254;11.454;2024-03-06T03:39:04;27.23;;;24.77;;
32812;SDS011;19162;48.254;11.454;2024-03-06T03:42:04;27.45;;;24.75;;
32812;SDS011;19162;48.254;11.454;2024-03-06T03:45:05;27.10;;;24.70;;
32812;SDS011;19162;48.254;11.454;2024-03-06T03:48:05;27.17;;;24.77;;
32812;SDS011;19162;48.254;11.454;2024-03-06T03:51:05;27.90;;;25.40;;
32812;SDS011;19162;48.254;11.454;2024-03-06T03:54:06;26.83;;;24.40;;
32812;SDS011;19162;48.254;11.454;2024-03-06T03:57:07;27.75;;;25.30;;
32812;SDS011;19162;48.254;11.454;2024-03-06T04:00:08;26.50;;;24.05;;
32812;SDS011;19162;48.254;11.454;2024-03-06T04:03:10;28.13;;;25.52;;
32812;SDS011;19162;48.254;11.454;2024-03-06T04:06:11;28.30;;;25.83;;
32812;SDS011;19162;48.254;11.454;2024-03-06T04:09:11;28.90;;;26.27;;
32812;SDS011;19162;48.254;11.454;2024-03-06T04:12:11;27.60;;;25.10;;
32812;SDS011;19162;48.254;11.454;2024-03-06T04:15:12;28.42;;;25.90;;
32812;SDS011;19162;48.254;11.454;2024-03-06T04:18:12;27.07;;;24.77;;
32812;SDS011;19162;48.254;11.454;2024-03-06T04:21:12;26.85;;;24.50;;
32812;SDS011;19162;48.254;11.454;2024-03-06T04:24:14;26.27;;;23.90;;
32812;SDS011;19162;48.254;11.454;2024-03-06T04:27:15;27.50;;;25.00;;
32812;SDS011;19162;48.254;11.454;2024-03-06T04:30:16;28.20;;;25.40;;
32812;SDS011;19162;48.254;11.454;2024-03-06T04:33:16;27.45;;;25.00;;
32812;SDS011;19162;48.254;11.454;2024-03-06T04:36:17;26.53;;;24.10;;
32812;SDS011;19162;48.254;11.454;2024-03-06T04:39:17;26.95;;;24.55;;
32812;SDS011;19162;48.254;11.454;2024-03-06T04:42:17;26.73;;;24.23;;
32812;SDS011;19162;48.254;11.454;2024-03-06T04:45:17;29.10;;;26.37;;
32812;SDS011;19162;48.254;11.454;2024-03-06T04:48:18;26.27;;;23.90;;
32812;SDS011;19162;48.254;11.454;2024-03-06T04:51:18;27.73;;;25.03;;
32812;SDS011;19162;48.254;11.454;2024-03-06T04:54:19;27.77;;;25.17;;
32812;SDS011;19162;48.254;11.454;2024-03-06T04:57:19;27.60;;;25.10;;
32812;SDS011;19162;48.254;11.454;2024-03-06T05:00:20;26.60;;;24.10;;
32812;SDS011;19162;48.254;11.454;2024-03-06T05:03:20;25.88;;;23.50;;
32812;SDS011;19162;48.254;11.454;2024-03-06T05:06:20;25.50;;;23.07;;
32812;SDS011;19162;48.254;11.454;2024-03-06T05:09:22;27.13;;;24.63;;
32812;SDS011;19162;48.254;11.454;2024-03-06T05:12:22;26.60;;;24.10;;
32812;SDS011;19162;48.254;11.454;2024-03-06T05:15:22;26.83;;;24.42;;
32812;SDS011;19162;48.254;11.454;2024-03-06T05:18:23;26.87;;;24.40;;
32812;SDS011;19162;48.254;11.454;2024-03-06T05:21:23;27.52;;;24.88;;
32812;SDS011;19162;48.254;11.454;2024-03-06T05:24:23;27.08;;;24.48;;
32812;SDS011;19162;48.254;11.454;2024-03-06T05:27:24;24.73;;;22.53;;
32812;SDS011;19162;48.254;11.454;2024-03-06T05:30:24;25.85;;;23.48;;
32812;SDS011;19162;48.254;11.454;2024-03-06T05:33:25;27.25;;;24.65;;
32812;SDS011;19162;48.254;11.454;2024-03-06T05:36:26;26.25;;;23.85;;
32812;SDS011;19162;48.254;11.454;2024-03-06T05:39:27;26.93;;;24.43;;
32812;SDS011;19162;48.254;11.454;2024-03-06T05:42:27;26.23;;;23.83;;
32812;SDS011;19162;48.254;11.454;2024-03-06T05:45:27;26.23;;;23.87;;
32812;SDS011;19162;48.254;11.454;2024-03-06T05:48:27;26.88;;;24.30;;
32812;SDS011;19162;48.254;11.454;2024-03-06T05:51:28;28.90;;;26.17;;
32812;SDS011;19162;48.254;11.454;2024-03-06T05:54:28;26.17;;;23.77;;
32812;SDS011;19162;48.254;11.454;2024-03-06T05:57:29;26.50;;;24.02;;
32812;SDS011;19162;48.254;11.454;2024-03-06T06:00:29;25.40;;;23.05;;
32812;SDS011;19162;48.254;11.454;2024-03-06T06:03:29;26.38;;;23.67;;
32812;SDS011;19162;48.254;11.454;2024-03-06T06:06:30;25.23;;;22.85;;
32812;SDS011;19162;48.254;11.454;2024-03-06T06:09:30;25.63;;;23.23;;
32812;SDS011;19162;48.254;11.454;2024-03-06T06:12:30;26.43;;;24.03;;
32812;SDS011;19162;48.254;11.454;2024-03-06T06:15:30;26.33;;;23.73;;
32812;SDS011;19162;48.254;11.454;2024-03-06T06:18:31;27.45;;;24.90;;
32812;SDS011;19162;48.254;11.454;2024-03-06T06:21:32;25.52;;;23.00;;
32812;SDS011;19162;48.254;11.454;2024-03-06T06:24:32;25.40;;;23.00;;
32812;SDS011;19162;48.254;11.454;2024-03-06T06:27:33;25.60;;;23.27;;
32812;SDS011;19162;48.254;11.454;2024-03-06T06:30:33;24.80;;;22.60;;
32812;SDS011;19162;48.254;11.454;2024-03-06T06:33:33;24.33;;;22.03;;
32812;SDS011;19162;48.254;11.454;2024-03-06T06:36:33;24.60;;;22.20;;
32812;SDS011;19162;48.254;11.454;2024-03-06T06:39:34;25.90;;;23.43;;
32812;SDS011;19162;48.254;11.454;2024-03-06T06:42:35;25.08;;;22.73;;
32812;SDS011;19162;48.254;11.454;2024-03-06T06:45:35;25.02;;;22.50;;
32812;SDS011;19162;48.254;11.454;2024-03-06T06:48:37;21.87;;;19.70;;
32812;SDS011;19162;48.254;11.454;2024-03-06T06:51:38;24.03;;;21.83;;
32812;SDS011;19162;48.254;11.454;2024-03-06T06:54:38;24.27;;;22.07;;
32812;SDS011;19162;48.254;11.454;2024-03-06T06:57:38;24.00;;;21.70;;
32812;SDS011;19162;48.254;11.454;2024-03-06T07:00:38;24.05;;;21.75;;
32812;SDS011;19162;48.254;11.454;2024-03-06T07:03:39;24.23;;;21.83;;
32812;SDS011;19162;48.254;11.454;2024-03-06T07:06:39;23.50;;;21.35;;
32812;SDS011;19162;48.254;11.454;2024-03-06T07:09:39;25.83;;;23.30;;
32812;SDS011;19162;48.254;11.454;2024-03-06T07:12:39;25.47;;;22.97;;
32812;SDS011;19162;48.254;11.454;2024-03-06T07:15:40;26.00;;;23.50;;
32812;SDS011;19162;48.254;11.454;2024-03-06T07:18:40;25.55;;;22.98;;
32812;SDS011;19162;48.254;11.454;2024-03-06T07:21:41;23.50;;;21.27;;
32812;SDS011;19162;48.254;11.454;2024-03-06T07:24:41;24.38;;;22.20;;
32812;SDS011;19162;48.254;11.454;2024-03-06T07:27:41;25.10;;;22.80;;
32812;SDS011;19162;48.254;11.454;2024-03-06T07:30:42;24.48;;;21.98;;
32812;SDS011;19162;48.254;11.454;2024-03-06T07:33:42;25.38;;;22.98;;
32812;SDS011;19162;48.254;11.454;2024-03-06T07:36:43;25.23;;;22.63;;
32812;SDS011;19162;48.254;11.454;2024-03-06T07:39:43;24.90;;;22.40;;
32812;SDS011;19162;48.254;11.454;2024-03-06T07:42:43;25.20;;;22.60;;
32812;SDS011;19162;48.254;11.454;2024-03-06T07:45:43;22.90;;;20.73;;
32812;SDS011;19162;48.254;11.454;2024-03-06T07:48:44;25.87;;;23.33;;
32812;SDS011;19162;48.254;11.454;2024-03-06T07:51:44;24.70;;;22.30;;
32812;SDS011;19162;48.254;11.454;2024-03-06T07:54:45;23.92;;;21.70;;
32812;SDS011;19162;48.254;11.454;2024-03-06T07:57:45;25.63;;;23.15;;
32812;SDS011;19162;48.254;11.454;2024-03-06T08:00:45;23.53;;;21.40;;
32812;SDS011;19162;48.254;11.454;2024-03-06T08:03:46;25.67;;;23.08;;
32812;SDS011;19162;48.254;11.454;2024-03-06T08:06:46;26.50;;;23.80;;
32812;SDS011;19162;48.254;11.454;2024-03-06T08:09:46;23.75;;;21.52;;
32812;SDS011;19162;48.254;11.454;2024-03-06T08:12:46;25.08;;;22.75;;
32812;SDS011;19162;48.254;11.454;2024-03-06T08:15:48;26.30;;;23.73;;
32812;SDS011;19162;48.254;11.454;2024-03-06T08:18:48;24.33;;;21.90;;
32812;SDS011;19162;48.254;11.454;2024-03-06T08:21:48;24.43;;;22.13;;
32812;SDS011;19162;48.254;11.454;2024-03-06T08:24:48;23.92;;;21.42;;
32812;SDS011;19162;48.254;11.454;2024-03-06T08:27:48;25.90;;;23.45;;
32812;SDS011;19162;48.254;11.454;2024-03-06T08:30:49;25.92;;;23.33;;
32812;SDS011;19162;48.254;11.454;2024-03-06T08:33:49;27.00;;;24.37;;
32812;SDS011;19162;48.254;11.454;2024-03-06T08:36:49;27.80;;;24.85;;
32812;SDS011;19162;48.254;11.454;2024-03-06T08:39:49;27.75;;;24.98;;
32812;SDS011;19162;48.254;11.454;2024-03-06T08:42:49;26.17;;;23.77;;
32812;SDS011;19162;48.254;11.454;2024-03-06T08:45:50;28.30;;;25.40;;
32812;SDS011;19162;48.254;11.454;2024-03-06T08:48:50;27.95;;;25.17;;
32812;SDS011;19162;48.254;11.454;2024-03-06T08:51:50;27.52;;;24.73;;
32812;SDS011;19162;48.254;11.454;2024-03-06T08:54:51;27.37;;;24.50;;
32812;SDS011;19162;48.254;11.454;2024-03-06T08:57:51;28.95;;;26.17;;
32812;SDS011;19162;48.254;11.454;2024-03-06T09:00:52;29.45;;;26.65;;
32812;SDS011;19162;48.254;11.454;2024-03-06T09:03:53;29.02;;;26.40;;
32812;SDS011;19162;48.254;11.454;2024-03-06T09:06:53;30.53;;;27.57;;
32812;SDS011;19162;48.254;11.454;2024-03-06T09:09:54;32.17;;;29.17;;
32812;SDS011;19162;48.254;11.454;2024-03-06T09:12:54;30.65;;;27.67;;
32812;SDS011;19162;48.254;11.454;2024-03-06T09:15:55;32.53;;;29.27;;
32812;SDS011;19162;48.254;11.454;2024-03-06T09:18:55;33.83;;;30.70;;
32812;SDS011;19162;48.254;11.454;2024-03-06T09:21:55;34.28;;;30.67;;
32812;SDS011;19162;48.254;11.454;2024-03-06T09:24:56;34.22;;;30.85;;
32812;SDS011;19162;48.254;11.454;2024-03-06T09:27:56;36.03;;;32.33;;
32812;SDS011;19162;48.254;11.454;2024-03-06T09:30:57;35.20;;;31.75;;
32812;SDS011;19162;48.254;11.454;2024-03-06T09:33:57;36.47;;;32.90;;
32812;SDS011;19162;48.254;11.454;2024-03-06T09:36:57;35.08;;;31.50;;
32812;SDS011;19162;48.254;11.454;2024-03-06T09:39:57;38.03;;;34.20;;
32812;SDS011;19162;48.254;11.454;2024-03-06T09:42:57;34.55;;;31.05;;
32812;SDS011;19162;48.254;11.454;2024-03-06T09:45:58;35.40;;;31.85;;
32812;SDS011;19162;48.254;11.454;2024-03-06T09:48:58;34.63;;;31.13;;
32812;SDS011;19162;48.254;11.454;2024-03-06T09:51:59;34.70;;;31.42;;
32812;SDS011;19162;48.254;11.454;2024-03-06T09:55:00;33.97;;;30.58;;
32812;SDS011;19162;48.254;11.454;2024-03-06T09:58:00;34.17;;;30.85;;
32812;SDS011;19162;48.254;11.454;2024-03-06T10:01:03;35.90;;;32.15;;
32812;SDS011;19162;48.254;11.454;2024-03-06T10:04:26;31.42;;;28.38;;
32812;SDS011;19162;48.254;11.454;2024-03-06T10:07:26;32.65;;;29.45;;
32812;SDS011;19162;48.254;11.454;2024-03-06T10:10:27;35.42;;;31.88;;
32812;SDS011;19162;48.254;11.454;2024-03-06T10:13:27;34.23;;;30.97;;
32812;SDS011;19162;48.254;11.454;2024-03-06T10:16:28;34.38;;;30.92;;
32812;SDS011;19162;48.254;11.454;2024-03-06T10:19:29;32.88;;;29.60;;
32812;SDS011;19162;48.254;11.454;2024-03-06T10:22:29;32.47;;;29.45;;
32812;SDS011;19162;48.254;11.454;2024-03-06T10:25:29;32.30;;;29.37;;
32812;SDS011;19162;48.254;11.454;2024-03-06T10:28:29;32.67;;;29.20;;
32812;SDS011;19162;48.254;11.454;2024-03-06T10:31:30;31.60;;;28.60;;
32812;SDS011;19162;48.254;11.454;2024-03-06T10:34:30;29.80;;;27.13;;
32812;SDS011;19162;48.254;11.454;2024-03-06T10:37:31;30.95;;;28.05;;
32812;SDS011;19162;48.254;11.454;2024-03-06T10:40:31;30.10;;;27.20;;
32812;SDS011;19162;48.254;11.454;2024-03-06T10:43:32;29.92;;;27.13;;
32812;SDS011;19162;48.254;11.454;2024-03-06T10:46:35;27.93;;;25.20;;
32812;SDS011;19162;48.254;11.454;2024-03-06T10:49:35;25.50;;;23.20;;
32812;SDS011;19162;48.254;11.454;2024-03-06T10:52:36;26.65;;;24.10;;
32812;SDS011;19162;48.254;11.454;2024-03-06T10:55:38;27.98;;;25.48;;
32812;SDS011;19162;48.254;11.454;2024-03-06T10:58:38;27.58;;;25.13;;
32812;SDS011;19162;48.254;11.454;2024-03-06T11:01:40;27.23;;;24.75;;
32812;SDS011;19162;48.254;11.454;2024-03-06T11:04:43;26.42;;;24.08;;
32812;SDS011;19162;48.254;11.454;2024-03-06T11:07:44;26.25;;;23.95;;
32812;SDS011;19162;48.254;11.454;2024-03-06T11:10:44;28.00;;;25.40;;
32812;SDS011;19162;48.254;11.454;2024-03-06T11:13:45;26.30;;;23.90;;
32812;SDS011;19162;48.254;11.454;2024-03-06T11:23:16;24.50;;;22.40;;
32812;SDS011;19162;48.254;11.454;2024-03-06T11:26:17;24.77;;;22.58;;
32812;SDS011;19162;48.254;11.454;2024-03-06T11:29:20;24.15;;;22.02;;
32812;SDS011;19162;48.254;11.454;2024-03-06T11:32:20;24.53;;;22.33;;
32812;SDS011;19162;48.254;11.454;2024-03-06T11:35:22;25.23;;;22.88;;
32812;SDS011;19162;48.254;11.454;2024-03-06T11:38:22;23.90;;;21.77;;
32812;SDS011;19162;48.254;11.454;2024-03-06T11:41:25;24.63;;;22.27;;
32812;SDS011;19162;48.254;11.454;2024-03-06T11:44:26;23.63;;;21.52;;
32812;SDS011;19162;48.254;11.454;2024-03-06T11:47:26;23.13;;;21.02;;
32812;SDS011;19162;48.254;11.454;2024-03-06T11:50:27;21.70;;;19.80;;
32812;SDS011;19162;48.254;11.454;2024-03-06T11:53:33;22.10;;;20.13;;
32812;SDS011;19162;48.254;11.454;2024-03-06T11:56:35;23.13;;;21.00;;
32812;SDS011;19162;48.254;11.454;2024-03-06T11:59:36;20.35;;;18.40;;
32812;SDS011;19162;48.254;11.454;2024-03-06T12:05:39;20.85;;;18.95;;
32812;SDS011;19162;48.254;11.454;2024-03-06T12:08:39;20.07;;;18.30;;
32812;SDS011;19162;48.254;11.454;2024-03-06T12:11:39;18.60;;;16.90;;
32812;SDS011;19162;48.254;11.454;2024-03-06T12:14:40;20.33;;;18.52;;
32812;SDS011;19162;48.254;11.454;2024-03-06T12:17:44;19.13;;;17.52;;
32812;SDS011;19162;48.254;11.454;2024-03-06T12:20:46;20.00;;;18.30;;
32812;SDS011;19162;48.254;11.454;2024-03-06T12:23:46;20.40;;;18.50;;
32812;SDS011;19162;48.254;11.454;2024-03-06T12:26:46;19.38;;;17.60;;
32812;SDS011;19162;48.254;11.454;2024-03-06T12:29:52;20.38;;;18.58;;
32812;SDS011;19162;48.254;11.454;2024-03-06T12:36:05;17.95;;;16.33;;
32812;SDS011;19162;48.254;11.454;2024-03-06T12:39:06;18.60;;;16.95;;
32812;SDS011;19162;48.254;11.454;2024-03-06T12:42:24;18.33;;;16.67;;
32812;SDS011;19162;48.254;11.454;2024-03-06T12:45:25;18.73;;;17.02;;
32812;SDS011;19162;48.254;11.454;2024-03-06T12:48:27;16.55;;;14.98;;
32812;SDS011;19162;48.254;11.454;2024-03-06T12:51:30;17.85;;;16.05;;
32812;SDS011;19162;48.254;11.454;2024-03-06T12:54:30;16.63;;;15.03;;
32812;SDS011;19162;48.254;11.454;2024-03-06T12:57:31;15.75;;;14.48;;
32812;SDS011;19162;48.254;11.454;2024-03-06T13:00:31;17.63;;;15.93;;
32812;SDS011;19162;48.254;11.454;2024-03-06T13:03:31;17.33;;;15.65;;
32812;SDS011;19162;48.254;11.454;2024-03-06T13:06:32;19.55;;;17.85;;
32812;SDS011;19162;48.254;11.454;2024-03-06T13:09:32;18.38;;;16.58;;
32812;SDS011;19162;48.254;11.454;2024-03-06T13:12:32;20.17;;;18.17;;
32812;SDS011;19162;48.254;11.454;2024-03-06T13:15:33;20.13;;;18.40;;
32812;SDS011;19162;48.254;11.454;2024-03-06T13:18:37;18.48;;;16.67;;
32812;SDS011;19162;48.254;11.454;2024-03-06T13:21:37;21.02;;;19.00;;
32812;SDS011;19162;48.254;11.454;2024-03-06T13:24:37;18.23;;;16.50;;
32812;SDS011;19162;48.254;11.454;2024-03-06T13:27:38;19.38;;;17.50;;
32812;SDS011;19162;48.254;11.454;2024-03-06T13:30:38;20.55;;;18.55;;
32812;SDS011;19162;48.254;11.454;2024-03-06T13:33:38;20.95;;;19.05;;
32812;SDS011;19162;48.254;11.454;2024-03-06T13:36:39;20.90;;;18.88;;
32812;SDS011;19162;48.254;11.454;2024-03-06T13:39:39;23.17;;;21.07;;
32812;SDS011;19162;48.254;11.454;2024-03-06T13:42:39;23.10;;;20.90;;
32812;SDS011;19162;48.254;11.454;2024-03-06T13:45:48;24.17;;;21.90;;
32812;SDS011;19162;48.254;11.454;2024-03-06T13:48:48;25.02;;;22.63;;
32812;SDS011;19162;48.254;11.454;2024-03-06T13:51:48;24.25;;;21.92;;
32812;SDS011;19162;48.254;11.454;2024-03-06T13:54:49;24.77;;;22.30;;
32812;SDS011;19162;48.254;11.454;2024-03-06T13:57:49;23.92;;;21.63;;
32812;SDS011;19162;48.254;11.454;2024-03-06T14:00:49;25.00;;;22.63;;
32812;SDS011;19162;48.254;11.454;2024-03-06T14:03:51;23.60;;;21.35;;
32812;SDS011;19162;48.254;11.454;2024-03-06T14:06:51;23.17;;;21.00;;
32812;SDS011;19162;48.254;11.454;2024-03-06T14:09:51;22.03;;;19.97;;
32812;SDS011;19162;48.254;11.454;2024-03-06T14:12:52;22.48;;;20.15;;
32812;SDS011;19162;48.254;11.454;2024-03-06T14:15:52;21.05;;;19.13;;
32812;SDS011;19162;48.254;11.454;2024-03-06T14:18:53;24.13;;;21.80;;
32812;SDS011;19162;48.254;11.454;2024-03-06T14:21:55;23.88;;;21.63;;
32812;SDS011;19162;48.254;11.454;2024-03-06T14:24:55;23.15;;;19.85;;
32812;SDS011;19162;48.254;11.454;2024-03-06T14:27:55;22.40;;;20.25;;
32812;SDS011;19162;48.254;11.454;2024-03-06T14:30:56;20.98;;;18.80;;
32812;SDS011;19162;48.254;11.454;2024-03-06T14:33:57;21.17;;;19.17;;
32812;SDS011;19162;48.254;11.454;2024-03-06T14:36:57;20.83;;;18.92;;
32812;SDS011;19162;48.254;11.454;2024-03-06T14:39:57;29.37;;;26.87;;
32812;SDS011;19162;48.254;11.454;2024-03-06T14:42:57;30.83;;;28.10;;
32812;SDS011;19162;48.254;11.454;2024-03-06T14:45:57;19.42;;;17.63;;
32812;SDS011;19162;48.254;11.454;2024-03-06T14:48:57;21.00;;;19.13;;
32812;SDS011;19162;48.254;11.454;2024-03-06T14:51:58;19.33;;;17.45;;
32812;SDS011;19162;48.254;11.454;2024-03-06T14:54:58;16.63;;;15.13;;
32812;SDS011;19162;48.254;11.454;2024-03-06T14:57:58;14.00;;;12.73;;
32812;SDS011;19162;48.254;11.454;2024-03-06T15:00:58;18.67;;;16.97;;
32812;SDS011;19162;48.254;11.454;2024-03-06T15:03:58;16.97;;;15.47;;
32812;SDS011;19162;48.254;11.454;2024-03-06T15:06:59;19.33;;;17.45;;
32812;SDS011;19162;48.254;11.454;2024-03-06T15:09:59;25.17;;;22.88;;
32812;SDS011;19162;48.254;11.454;2024-03-06T15:13:00;13.07;;;11.88;;
32812;SDS011;19162;48.254;11.454;2024-03-06T15:16:00;17.70;;;15.88;;
32812;SDS011;19162;48.254;11.454;2024-03-06T15:19:00;11.20;;;10.20;;
32812;SDS011;19162;48.254;11.454;2024-03-06T15:22:03;18.77;;;16.95;;
32812;SDS011;19162;48.254;11.454;2024-03-06T15:25:03;14.98;;;13.68;;
32812;SDS011;19162;48.254;11.454;2024-03-06T15:28:03;19.50;;;17.70;;
32812;SDS011;19162;48.254;11.454;2024-03-06T15:31:04;20.23;;;18.30;;
32812;SDS011;19162;48.254;11.454;2024-03-06T15:34:04;29.05;;;26.25;;
32812;SDS011;19162;48.254;11.454;2024-03-06T15:37:04;9.90;;;9.10;;
32812;SDS011;19162;48.254;11.454;2024-03-06T15:40:05;41.85;;;37.55;;
32812;SDS011;19162;48.254;11.454;2024-03-06T15:43:06;19.83;;;17.95;;
32812;SDS011;19162;48.254;11.454;2024-03-06T15:46:06;8.47;;;7.77;;
32812;SDS011;19162;48.254;11.454;2024-03-06T15:49:07;8.70;;;8.02;;
32812;SDS011;19162;48.254;11.454;2024-03-06T15:52:19;7.10;;;6.50;;
32812;SDS011;19162;48.254;11.454;2024-03-06T15:55:19;6.80;;;6.20;;
32812;SDS011;19162;48.254;11.454;2024-03-06T15:58:19;6.30;;;5.78;;
32812;SDS011;19162;48.254;11.454;2024-03-06T16:01:19;7.23;;;6.53;;
32812;SDS011;19162;48.254;11.454;2024-03-06T16:04:20;8.02;;;7.32;;
32812;SDS011;19162;48.254;11.454;2024-03-06T16:07:20;11.35;;;10.40;;
32812;SDS011;19162;48.254;11.454;2024-03-06T16:10:20;8.05;;;7.35;;
32812;SDS011;19162;48.254;11.454;2024-03-06T16:13:21;24.38;;;22.38;;
32812;SDS011;19162;48.254;11.454;2024-03-06T16:16:21;8.57;;;7.97;;
32812;SDS011;19162;48.254;11.454;2024-03-06T16:19:21;5.23;;;4.83;;
32812;SDS011;19162;48.254;11.454;2024-03-06T16:22:23;5.88;;;5.47;;
32812;SDS011;19162;48.254;11.454;2024-03-06T16:25:23;4.75;;;4.45;;
32812;SDS011;19162;48.254;11.454;2024-03-06T16:28:23;4.57;;;4.27;;
32812;SDS011;19162;48.254;11.454;2024-03-06T16:31:24;5.13;;;4.68;;
32812;SDS011;19162;48.254;11.454;2024-03-06T16:34:25;4.30;;;3.90;;
32812;SDS011;19162;48.254;11.454;2024-03-06T16:37:25;5.70;;;4.28;;
32812;SDS011;19162;48.254;11.454;2024-03-06T16:40:25;4.37;;;3.97;;
32812;SDS011;19162;48.254;11.454;2024-03-06T16:43:25;4.65;;;4.28;;
32812;SDS011;19162;48.254;11.454;2024-03-06T16:46:26;4.50;;;4.10;;
32812;SDS011;19162;48.254;11.454;2024-03-06T16:49:27;4.93;;;4.53;;
32812;SDS011;19162;48.254;11.454;2024-03-06T16:52:30;5.50;;;5.00;;
32812;SDS011;19162;48.254;11.454;2024-03-06T16:55:30;5.30;;;4.80;;
32812;SDS011;19162;48.254;11.454;2024-03-06T16:58:30;5.10;;;4.70;;
32812;SDS011;19162;48.254;11.454;2024-03-06T17:01:31;4.82;;;4.53;;
32812;SDS011;19162;48.254;11.454;2024-03-06T17:04:31;5.82;;;5.43;;
32812;SDS011;19162;48.254;11.454;2024-03-06T17:07:32;4.85;;;4.55;;
32812;SDS011;19162;48.254;11.454;2024-03-06T17:10:32;4.78;;;4.38;;
32812;SDS011;19162;48.254;11.454;2024-03-06T17:13:32;5.13;;;4.57;;
32812;SDS011;19162;48.254;11.454;2024-03-06T17:16:35;3.80;;;3.50;;
32812;SDS011;19162;48.254;11.454;2024-03-06T17:19:35;3.93;;;3.63;;
32812;SDS011;19162;48.254;11.454;2024-03-06T17:22:37;4.55;;;4.25;;
32812;SDS011;19162;48.254;11.454;2024-03-06T17:25:37;4.70;;;4.30;;
32812;SDS011;19162;48.254;11.454;2024-03-06T17:28:37;4.57;;;4.27;;
32812;SDS011;19162;48.254;11.454;2024-03-06T17:31:40;4.68;;;4.38;;
32812;SDS011;19162;48.254;11.454;2024-03-06T17:34:42;4.35;;;4.05;;
32812;SDS011;19162;48.254;11.454;2024-03-06T17:37:42;4.22;;;3.92;;